»·PEaware :: N131CA KMRY-KSBA

N131CA :: KMRY-KSBA

FLIGHT INFORMATION

Flight Status: Arrived
Operator: Privately registered:
United States
More flights under this callsign
Pilot: Tyler E. (7132)
Aircraft: BEECH AIRCRAFT PREMIER
(PRM1)
More flights by this aircraft type
Origin: KMRY Monterey Peninsula
United States
Destination: KSBA Santa Barbara Mun
United States
More flights between these airports :: More routes between these airports
Route: MRY5 SHOEY V27 GVO
File this flight plan on PilotEdge
Remarks:
Altitude:
(Current/Filed)
19,000ft
Speed:
(Current/Filed)
300kts
Departed: 02-Oct-21 01:44 PM
Arrived: 02-Oct-21 02:24 PM
Distance/Time
Traveled:
162nm/0:40
Distance/Time
To Go:
Arrived

Flight Plot

Page will automatically refresh every two minutes.

Flight plan parsing failed; only flown route is shown


Map Options




Map Legend


Flown Route
Filed Route
Departure Airport
Arrival Airport
Navaid (VOR, NDB)
Fix

Horizontal Profiles

Position Reports

Time Latitude Longitude Heading Altitude Ground
Speed
02-Oct-21 13:30 36.589359 -121.857863 0 210ft 0kts
02-Oct-21 13:31 36.589712 -121.858498 171 210ft 0kts
02-Oct-21 13:32 36.589710 -121.858498 171 210ft 0kts
02-Oct-21 13:33 36.589706 -121.858497 171 210ft 0kts
02-Oct-21 13:34 36.589702 -121.858497 171 210ft 0kts
02-Oct-21 13:35 36.589534 -121.858117 74 210ft 8kts
02-Oct-21 13:36 36.589521 -121.854796 107 210ft 9kts
02-Oct-21 13:37 36.588477 -121.851177 111 210ft 13kts
02-Oct-21 13:38 36.586956 -121.846719 115 210ft 14kts
02-Oct-21 13:39 36.585182 -121.841949 113 210ft 15kts
02-Oct-21 13:40 36.583493 -121.836920 112 210ft 15kts
02-Oct-21 13:41 36.582845 -121.834721 92 210ft 0kts
02-Oct-21 13:42 36.583346 -121.833639 296 210ft 11kts
02-Oct-21 13:43 36.597154 -121.868306 317 1709ft 156kts
02-Oct-21 13:44 36.642310 -121.881808 352 4754ft 187kts
02-Oct-21 13:45 36.673069 -121.926830 242 7819ft 213kts
02-Oct-21 13:46 36.620674 -121.923684 147 10870ft 229kts
02-Oct-21 13:47 36.563360 -121.883359 152 13880ft 241kts
02-Oct-21 13:48 36.504532 -121.845825 153 16864ft 229kts
02-Oct-21 13:49 36.449979 -121.811290 153 18894ft 237kts
02-Oct-21 13:50 36.377750 -121.765665 153 19073ft 349kts
02-Oct-21 13:51 36.286505 -121.708128 153 19056ft 371kts
02-Oct-21 13:52 36.194550 -121.650329 153 19055ft 370kts
02-Oct-21 13:53 36.100396 -121.599152 158 19054ft 370kts
02-Oct-21 13:54 36.005181 -121.549919 157 19053ft 371kts
02-Oct-21 13:55 35.910366 -121.500661 157 19050ft 370kts
02-Oct-21 13:56 35.815283 -121.451331 157 19048ft 370kts
02-Oct-21 13:57 35.720262 -121.402148 157 19044ft 371kts
02-Oct-21 13:58 35.628246 -121.346033 139 19047ft 372kts
02-Oct-21 13:59 35.562617 -121.247594 128 19047ft 373kts
02-Oct-21 14:00 35.499069 -121.146747 128 19048ft 373kts
02-Oct-21 14:01 35.435270 -121.046139 128 19048ft 374kts
02-Oct-21 14:02 35.372992 -120.948257 128 17999ft 340kts
02-Oct-21 14:03 35.316756 -120.860157 128 16194ft 322kts
02-Oct-21 14:04 35.261799 -120.774798 131 14399ft 318kts
02-Oct-21 14:05 35.194319 -120.705284 142 12605ft 317kts
02-Oct-21 14:06 35.125189 -120.640521 142 11158ft 309kts
02-Oct-21 14:07 35.055697 -120.575660 142 11006ft 311kts
02-Oct-21 14:08 34.987088 -120.511781 142 11015ft 309kts
02-Oct-21 14:09 34.918637 -120.448191 142 11019ft 309kts
02-Oct-21 14:10 34.849928 -120.384499 142 9932ft 297kts
02-Oct-21 14:11 34.789141 -120.328284 142 9049ft 267kts
02-Oct-21 14:12 34.730673 -120.274318 142 9014ft 261kts
02-Oct-21 14:13 34.674551 -120.218891 129 8853ft 261kts
02-Oct-21 14:14 34.632973 -120.146153 123 7857ft 265kts
02-Oct-21 14:15 34.592477 -120.071631 123 7092ft 259kts
02-Oct-21 14:16 34.553650 -120.000238 123 6991ft 249kts
02-Oct-21 14:17 34.515907 -119.931022 121 6986ft 240kts
02-Oct-21 14:18 34.500980 -119.862032 101 5093ft 198kts
02-Oct-21 14:19 34.487829 -119.799189 115 2802ft 180kts
02-Oct-21 14:20 34.452212 -119.779999 183 1415ft 146kts
02-Oct-21 14:21 34.429265 -119.804155 262 609ft 133kts
02-Oct-21 14:22 34.427733 -119.844483 265 15ft 73kts
02-Oct-21 14:23 34.426453 -119.850738 84 15ft 20kts
02-Oct-21 14:24 34.426620 -119.841771 88 15ft 27kts
02-Oct-21 14:25 34.429729 -119.839256 346 15ft 22kts
02-Oct-21 14:26 34.431866 -119.837700 70 15ft 0kts
02-Oct-21 14:27 34.431866 -119.837699 70 15ft 0kts

Navigation Log

Ident Type
Flight plan parsing failed, navigation log unavailable